Springcreek, Louisiana
Current Conditions -  °F | °C
As of 7:53 PM on Friday 24 Oct 2014 (Local Time) from KMCB Reporting Station
Clear Clear  
Wind Chill: 65°   Ceiling: Unl
Heat Index: 65°   Visibility: 10mi
Dew Point: 46°   Wind: 7mph
Humidity: 50%   Direction: 350°N
Pressure: 30.1"   Gusts: NA
Location:  30.881°N, 90.466°W
Report Text: KMCB 250053Z AUTO 35006KT 10SM CLR 18/08 A3010 RMK AO2 SLP190 T01830078
Loading
Personal Weather Stations






























Interactive Weather Map
Tropical Storm Tracking
New forecast layout! Learn more

10-Day Weather Forecast

Advertisements
Track Severe Weather on mobile